createdAt,value
2022-10-14T00:01:27.122Z,10.65
2022-10-14T00:04:06.675Z,10.61
2022-10-14T00:06:35.155Z,10.61
2022-10-14T00:09:07.613Z,10.57
2022-10-14T00:11:40.608Z,10.48
2022-10-14T00:14:13.418Z,10.49
2022-10-14T00:16:44.467Z,10.49
2022-10-14T00:19:14.614Z,10.50
2022-10-14T00:21:45.393Z,10.49
2022-10-14T00:24:19.568Z,10.51
2022-10-14T00:26:47.498Z,10.48
2022-10-14T00:29:19.128Z,10.46
2022-10-14T00:31:48.838Z,10.50
2022-10-14T00:34:16.995Z,10.54
2022-10-14T00:36:45.529Z,10.54
2022-10-14T00:39:17.140Z,10.54
2022-10-14T00:41:45.588Z,10.57
2022-10-14T00:44:13.557Z,10.62
2022-10-14T00:46:44.696Z,10.62
2022-10-14T00:49:37.031Z,10.58
2022-10-14T00:52:19.640Z,10.60
2022-10-14T00:54:53.657Z,10.58
2022-10-14T00:57:24.255Z,10.59
2022-10-14T00:59:58.082Z,10.56
2022-10-14T01:02:26.116Z,10.56
2022-10-14T01:04:56.601Z,10.58
2022-10-14T01:07:36.348Z,10.57
2022-10-14T01:10:20.411Z,10.54
2022-10-14T01:13:04.976Z,10.49
2022-10-14T01:15:55.545Z,10.50
2022-10-14T01:18:32.517Z,10.47
2022-10-14T01:21:10.303Z,10.49
2022-10-14T01:24:19.026Z,10.49
2022-10-14T01:26:58.781Z,10.48
2022-10-14T01:29:48.373Z,10.50
2022-10-14T01:32:24.565Z,10.48
2022-10-14T01:35:00.396Z,10.50
2022-10-14T01:37:30.579Z,10.52
2022-10-14T01:40:07.021Z,10.51
2022-10-14T01:42:39.463Z,10.51
2022-10-14T01:45:22.072Z,10.56
2022-10-14T01:47:54.228Z,10.54
2022-10-14T01:50:25.631Z,10.52
2022-10-14T01:53:01.811Z,10.53
2022-10-14T01:55:39.433Z,10.49
2022-10-14T01:58:10.324Z,10.49
2022-10-14T02:00:38.582Z,10.51
2022-10-14T02:03:07.263Z,10.55
2022-10-14T02:05:45.421Z,10.53
2022-10-14T02:08:33.797Z,10.52
2022-10-14T02:11:21.312Z,10.53
2022-10-14T02:14:19.224Z,10.50
2022-10-14T02:16:59.835Z,10.46
2022-10-14T02:20:03.381Z,10.46
2022-10-14T02:22:40.862Z,10.43
2022-10-14T02:25:27.151Z,10.47
2022-10-14T02:27:56.050Z,10.40
2022-10-14T02:30:26.636Z,10.35
2022-10-14T02:33:00.354Z,10.29
2022-10-14T02:35:30.954Z,10.26
2022-10-14T02:38:00.286Z,10.14
2022-10-14T02:40:33.901Z,10.07
2022-10-14T02:43:03.065Z,10.05
2022-10-14T02:45:31.197Z,9.99
2022-10-14T02:48:00.626Z,9.92
2022-10-14T02:50:28.592Z,9.88
2022-10-14T02:52:57.719Z,9.82
2022-10-14T02:55:25.682Z,9.74
2022-10-14T02:57:54.082Z,9.70
2022-10-14T03:00:22.756Z,9.68
2022-10-14T03:02:50.809Z,9.62
2022-10-14T03:05:19.602Z,9.50
2022-10-14T03:07:47.696Z,9.47
2022-10-14T03:10:16.263Z,9.35
2022-10-14T03:12:45.845Z,9.35
2022-10-14T03:15:22.243Z,9.33
2022-10-14T03:17:51.474Z,9.35
2022-10-14T03:20:23.021Z,9.36
2022-10-14T03:22:54.330Z,9.41
2022-10-14T03:25:24.559Z,9.47
2022-10-14T03:28:04.726Z,9.45
2022-10-14T03:30:53.445Z,9.52
2022-10-14T03:33:38.790Z,9.50
2022-10-14T03:36:10.896Z,9.43
2022-10-14T03:38:46.096Z,9.39
2022-10-14T03:41:23.319Z,9.26
2022-10-14T03:43:51.436Z,9.22
2022-10-14T03:46:25.199Z,9.20
2022-10-14T03:48:54.316Z,9.15
2022-10-14T03:51:22.908Z,9.08
2022-10-14T03:53:52.285Z,9.09
2022-10-14T03:56:27.036Z,9.09
2022-10-14T03:58:55.912Z,9.13
2022-10-14T04:01:24.235Z,9.12
2022-10-14T04:04:02.738Z,9.11
2022-10-14T04:06:31.819Z,9.17
2022-10-14T04:09:01.007Z,9.25
2022-10-14T04:11:33.534Z,9.24
2022-10-14T04:14:06.092Z,9.22
2022-10-14T04:16:37.852Z,9.21
2022-10-14T04:19:15.346Z,9.20
2022-10-14T04:21:44.553Z,9.14
2022-10-14T04:24:15.499Z,9.13
2022-10-14T04:26:57.445Z,9.09
2022-10-14T04:29:36.574Z,9.10
2022-10-14T04:32:10.858Z,9.11
2022-10-14T04:34:38.871Z,9.17
2022-10-14T04:37:27.135Z,9.12
2022-10-14T04:40:06.805Z,9.13
2022-10-14T04:42:40.767Z,9.17
2022-10-14T04:45:19.393Z,9.19
2022-10-14T04:47:52.305Z,9.22
2022-10-14T04:50:25.638Z,9.20
2022-10-14T04:53:14.063Z,9.24
2022-10-14T04:55:53.545Z,9.25
2022-10-14T04:58:35.978Z,9.26
2022-10-14T05:01:04.457Z,9.32
2022-10-14T05:03:37.108Z,9.35
2022-10-14T05:06:06.020Z,9.44
2022-10-14T05:08:35.931Z,9.52
2022-10-14T05:11:04.519Z,9.54
2022-10-14T05:13:45.788Z,9.44
2022-10-14T05:16:14.257Z,9.38
2022-10-14T05:18:43.311Z,9.37
2022-10-14T05:21:13.873Z,9.44
2022-10-14T05:23:57.304Z,9.39
2022-10-14T05:26:26.349Z,9.37
2022-10-14T05:28:54.727Z,9.39
2022-10-14T05:31:23.404Z,9.45
2022-10-14T05:33:58.553Z,9.40
2022-10-14T05:36:26.637Z,9.38
2022-10-14T05:38:58.754Z,9.42
2022-10-14T05:41:28.981Z,9.47
2022-10-14T05:43:58.652Z,9.54
2022-10-14T05:46:27.112Z,9.55
2022-10-14T05:48:57.705Z,9.52
2022-10-14T05:51:27.083Z,9.59
2022-10-14T05:54:03.756Z,9.55
2022-10-14T05:56:32.213Z,9.64
2022-10-14T05:59:00.593Z,9.66
2022-10-14T06:01:29.100Z,9.71
2022-10-14T06:04:02.339Z,9.74
2022-10-14T06:06:34.649Z,9.78
2022-10-14T06:09:11.085Z,9.73
2022-10-14T06:11:41.313Z,9.71
2022-10-14T06:14:10.898Z,9.65
2022-10-14T06:16:41.053Z,9.63
2022-10-14T06:19:09.357Z,9.72
2022-10-14T06:21:38.603Z,9.76
2022-10-14T06:24:08.273Z,9.73
2022-10-14T06:26:36.893Z,9.85
2022-10-14T06:29:05.628Z,9.84
2022-10-14T06:31:36.981Z,9.80
2022-10-14T06:34:06.209Z,9.86
2022-10-14T06:36:35.662Z,9.90
2022-10-14T06:39:05.378Z,10.01
2022-10-14T06:41:33.887Z,10.01
2022-10-14T06:44:02.173Z,10.04
2022-10-14T06:46:32.013Z,10.05
2022-10-14T06:49:01.676Z,10.09
2022-10-14T06:51:30.923Z,10.12
2022-10-14T06:54:01.617Z,10.17
2022-10-14T06:56:31.227Z,10.17
2022-10-14T06:59:00.186Z,10.15
2022-10-14T07:01:28.990Z,10.11
2022-10-14T07:03:57.277Z,10.15
2022-10-14T07:06:32.085Z,10.12
2022-10-14T07:09:02.823Z,10.12
2022-10-14T07:11:43.043Z,10.18
2022-10-14T07:14:11.792Z,10.19
2022-10-14T07:16:43.456Z,10.38
2022-10-14T07:19:11.975Z,10.42
2022-10-14T07:21:41.999Z,10.48
2022-10-14T07:24:10.654Z,10.76
2022-10-14T07:26:38.880Z,10.82
2022-10-14T07:29:09.503Z,11.00
2022-10-14T07:31:39.038Z,11.07
2022-10-14T07:34:07.841Z,11.25
2022-10-14T07:36:39.606Z,11.35
2022-10-14T07:39:08.114Z,11.47
2022-10-14T07:41:36.484Z,11.42
2022-10-14T07:44:08.963Z,11.49
2022-10-14T07:46:41.259Z,11.58
2022-10-14T07:49:18.169Z,11.67
2022-10-14T07:51:48.801Z,11.73
2022-10-14T07:54:23.719Z,11.89
2022-10-14T07:56:53.285Z,11.98
2022-10-14T07:59:26.937Z,12.10
2022-10-14T08:01:58.564Z,12.12
2022-10-14T08:04:28.310Z,12.19
2022-10-14T08:07:04.968Z,12.38
2022-10-14T08:09:36.026Z,12.52
2022-10-14T08:12:05.880Z,12.66
2022-10-14T08:14:36.882Z,12.53
2022-10-14T08:17:08.229Z,12.77
2022-10-14T08:19:37.380Z,12.86
2022-10-14T08:22:06.071Z,13.03
2022-10-14T08:24:34.501Z,13.22
2022-10-14T08:27:05.854Z,13.28
2022-10-14T08:29:50.926Z,13.39
2022-10-14T08:32:20.424Z,13.51
2022-10-14T08:34:56.853Z,13.61
2022-10-14T08:37:29.070Z,13.75
2022-10-14T08:39:57.593Z,13.88
2022-10-14T08:43:00.485Z,13.89
2022-10-14T08:45:39.552Z,14.13
2022-10-14T08:48:41.577Z,14.10
2022-10-14T08:51:19.723Z,14.26
2022-10-14T08:53:57.305Z,14.32
2022-10-14T08:56:29.120Z,14.39
2022-10-14T08:59:06.611Z,14.43
2022-10-14T09:01:39.905Z,14.66
2022-10-14T09:04:16.091Z,14.86
2022-10-14T09:08:31.941Z,14.98
2022-10-14T09:10:35.771Z,14.89
2022-10-14T09:13:28.910Z,15.11
2022-10-14T09:16:04.916Z,15.42
2022-10-14T09:18:39.933Z,15.27
2022-10-14T09:21:55.195Z,15.31
2022-10-14T09:24:35.846Z,15.18
2022-10-14T09:27:14.523Z,14.99
2022-10-14T09:29:47.724Z,15.17
2022-10-14T09:36:22.756Z,15.31
2022-10-14T09:38:53.588Z,15.42
2022-10-14T09:41:31.165Z,15.34
2022-10-14T09:44:26.119Z,15.39
2022-10-14T09:47:08.172Z,15.70
2022-10-14T09:49:42.744Z,15.74
2022-10-14T09:52:23.946Z,15.88
2022-10-14T09:54:59.148Z,16.04
2022-10-14T09:57:32.095Z,16.24
2022-10-14T10:00:05.222Z,16.35
2022-10-14T10:02:42.422Z,16.31
2022-10-14T10:05:35.401Z,16.32
2022-10-14T10:08:19.578Z,16.56
2022-10-14T10:11:05.503Z,16.25
2022-10-14T10:13:47.142Z,16.47
2022-10-14T10:16:32.961Z,16.31
2022-10-14T10:19:20.474Z,16.52
2022-10-14T10:21:48.564Z,16.62
2022-10-14T10:24:26.195Z,16.78
2022-10-14T10:26:57.219Z,16.75
2022-10-14T10:29:35.385Z,16.96
2022-10-14T10:32:21.282Z,16.84
2022-10-14T10:35:15.124Z,17.08
2022-10-14T10:38:06.563Z,17.07
2022-10-14T10:40:41.319Z,17.13
2022-10-14T10:43:21.409Z,17.25
2022-10-14T10:46:10.991Z,17.34
2022-10-14T10:48:54.615Z,17.55
2022-10-14T10:51:49.359Z,17.45
2022-10-14T10:54:42.076Z,17.38
2022-10-14T10:57:54.976Z,16.70
2022-10-14T11:00:26.929Z,16.85
2022-10-14T11:03:13.991Z,17.00
2022-10-14T11:05:53.045Z,16.49
2022-10-14T11:09:04.922Z,16.40
2022-10-14T11:12:03.949Z,16.71
2022-10-14T11:14:50.840Z,17.10
2022-10-14T11:18:06.011Z,17.38
2022-10-14T11:20:42.115Z,17.51
2022-10-14T11:23:19.863Z,17.49
2022-10-14T11:25:57.588Z,17.22
2022-10-14T11:28:30.376Z,17.50
2022-10-14T11:31:10.105Z,17.62
2022-10-14T11:34:10.320Z,17.91
2022-10-14T11:36:56.602Z,17.94
2022-10-14T11:39:37.492Z,17.42
2022-10-14T11:42:27.972Z,17.37
2022-10-14T11:45:47.289Z,17.57
2022-10-14T11:48:22.133Z,17.59
2022-10-14T11:50:58.372Z,17.41
2022-10-14T11:53:54.176Z,17.51
2022-10-14T11:56:53.694Z,17.63
2022-10-14T11:59:56.335Z,17.91
2022-10-14T12:02:47.372Z,17.89
2022-10-14T12:05:39.264Z,18.34
2022-10-14T12:08:46.485Z,18.75
2022-10-14T12:11:25.685Z,18.45
2022-10-14T12:14:04.111Z,18.43
2022-10-14T12:16:33.600Z,18.43
2022-10-14T12:19:02.335Z,18.29
2022-10-14T12:21:39.352Z,18.11
2022-10-14T12:24:14.952Z,17.67
2022-10-14T12:26:51.403Z,18.02
2022-10-14T12:29:44.941Z,18.21
2022-10-14T12:32:27.188Z,17.52
2022-10-14T12:35:02.450Z,17.38
2022-10-14T12:37:38.667Z,17.28
2022-10-14T12:40:12.975Z,17.20
2022-10-14T12:42:44.658Z,17.22
2022-10-14T12:45:48.267Z,17.10
2022-10-14T12:48:23.957Z,17.18
2022-10-14T12:51:14.921Z,17.22
2022-10-14T12:54:05.961Z,17.21
2022-10-14T12:56:40.349Z,17.15
2022-10-14T12:59:22.651Z,16.98
2022-10-14T13:02:00.101Z,17.35
2022-10-14T13:04:30.822Z,17.40
2022-10-14T13:07:41.093Z,17.25
2022-10-14T13:10:45.023Z,17.96
2022-10-14T13:13:52.485Z,18.43
2022-10-14T13:16:21.834Z,19.07
2022-10-14T13:18:53.191Z,18.77
2022-10-14T13:21:54.287Z,18.51
2022-10-14T13:24:30.162Z,18.40
2022-10-14T13:27:33.996Z,18.21
2022-10-14T13:30:06.559Z,18.13
2022-10-14T13:32:57.805Z,18.18
2022-10-14T13:35:42.800Z,18.24
2022-10-14T13:38:21.253Z,18.22
2022-10-14T13:40:58.251Z,18.21
2022-10-14T13:43:40.704Z,18.04
2022-10-14T13:46:23.150Z,17.85
2022-10-14T13:48:55.478Z,17.76
2022-10-14T13:51:49.105Z,17.73
2022-10-14T13:54:21.687Z,17.62
2022-10-14T14:02:55.138Z,17.40
2022-10-14T14:05:32.159Z,17.33
2022-10-14T14:11:18.201Z,17.11
2022-10-14T14:13:59.017Z,17.06
2022-10-14T14:16:37.154Z,16.87
2022-10-14T14:19:09.339Z,16.89
2022-10-14T14:21:38.430Z,16.87
2022-10-14T14:24:16.822Z,16.84
2022-10-14T14:26:55.927Z,16.88
2022-10-14T14:29:33.183Z,16.89
2022-10-14T14:32:08.148Z,16.89
2022-10-14T14:34:39.599Z,16.86
2022-10-14T14:40:14.946Z,16.65
2022-10-14T14:42:45.432Z,16.71
2022-10-14T14:45:22.833Z,16.59
2022-10-14T14:47:55.986Z,16.91
2022-10-14T14:50:33.768Z,17.64
2022-10-14T14:53:07.707Z,17.91
2022-10-14T14:55:45.361Z,18.11
2022-10-14T14:58:22.861Z,18.46
2022-10-14T15:00:55.043Z,18.92
2022-10-14T15:03:26.729Z,19.46
2022-10-14T15:06:01.601Z,19.88
2022-10-14T15:08:38.010Z,19.98
2022-10-14T15:11:07.435Z,19.75
2022-10-14T15:13:45.319Z,19.61
2022-10-14T15:16:15.235Z,18.85
2022-10-14T15:18:43.842Z,18.40
2022-10-14T15:21:16.398Z,18.05
2022-10-14T15:23:53.064Z,17.78
2022-10-14T15:26:36.793Z,17.49
2022-10-14T15:29:23.312Z,17.14
2022-10-14T15:32:14.440Z,16.96
2022-10-14T15:34:46.986Z,16.69
2022-10-14T15:37:18.645Z,16.46
2022-10-14T15:40:04.457Z,16.27
2022-10-14T15:42:37.353Z,16.13
2022-10-14T15:45:09.504Z,15.97
2022-10-14T15:47:45.812Z,15.85
2022-10-14T15:50:21.858Z,15.70
2022-10-14T15:52:55.390Z,15.62
2022-10-14T15:55:30.044Z,15.56
2022-10-14T15:57:59.814Z,15.45
2022-10-14T16:00:30.201Z,15.36
2022-10-14T16:02:59.962Z,15.29
2022-10-14T16:05:30.317Z,15.17
2022-10-14T16:07:59.411Z,15.14
2022-10-14T16:10:32.017Z,15.09
2022-10-14T16:13:04.628Z,15.02
2022-10-14T16:15:48.517Z,14.91
2022-10-14T16:18:23.603Z,14.79
2022-10-14T16:20:53.303Z,14.65
2022-10-14T16:23:28.286Z,14.57
2022-10-14T16:26:00.358Z,14.44
2022-10-14T16:28:30.933Z,14.30
2022-10-14T16:30:59.687Z,14.18
2022-10-14T16:33:28.599Z,14.09
2022-10-14T16:35:58.657Z,14.02
2022-10-14T16:38:30.312Z,13.92
2022-10-14T16:41:01.043Z,13.80
2022-10-14T16:43:32.049Z,13.74
2022-10-14T16:46:10.507Z,13.68
2022-10-14T16:48:44.721Z,13.60
2022-10-14T16:51:14.208Z,13.54
2022-10-14T16:53:46.199Z,13.46
2022-10-14T16:56:39.335Z,13.39
2022-10-14T16:59:13.057Z,13.28
2022-10-14T17:01:51.647Z,13.21
2022-10-14T17:04:25.068Z,13.11
2022-10-14T17:07:07.266Z,13.04
2022-10-14T17:09:46.838Z,12.98
2022-10-14T17:12:23.099Z,12.89
2022-10-14T17:14:52.545Z,12.80
2022-10-14T17:17:24.675Z,12.73
2022-10-14T17:19:54.387Z,12.68
2022-10-14T17:22:25.382Z,12.63
2022-10-14T17:24:57.049Z,12.56
2022-10-14T17:27:25.552Z,12.50
2022-10-14T17:29:54.396Z,12.42
2022-10-14T17:32:22.812Z,12.34
2022-10-14T17:34:53.493Z,12.29
2022-10-14T17:37:24.851Z,12.19
2022-10-14T17:39:58.109Z,12.07
2022-10-14T17:42:28.289Z,11.97
2022-10-14T17:44:56.770Z,11.88
2022-10-14T17:47:26.956Z,11.78
2022-10-14T17:49:57.053Z,11.72
2022-10-14T17:52:31.304Z,11.63
2022-10-14T17:55:04.853Z,11.57
2022-10-14T17:57:34.309Z,11.55
2022-10-14T18:00:05.391Z,11.51
2022-10-14T18:02:44.474Z,11.46
2022-10-14T18:05:14.716Z,11.39
2022-10-14T18:07:43.473Z,11.27
2022-10-14T18:10:15.710Z,11.21
2022-10-14T18:12:45.685Z,11.16
2022-10-14T18:15:14.064Z,11.10
2022-10-14T18:17:44.806Z,11.06
2022-10-14T18:20:13.771Z,11.05
2022-10-14T18:22:43.217Z,10.99
2022-10-14T18:25:15.355Z,10.95
2022-10-14T18:27:51.337Z,10.89
2022-10-14T18:30:20.266Z,10.83
2022-10-14T18:32:49.660Z,10.76
2022-10-14T18:35:18.919Z,10.69
2022-10-14T18:37:53.012Z,10.66
2022-10-14T18:40:21.900Z,10.60
2022-10-14T18:42:57.517Z,10.54
2022-10-14T18:45:25.910Z,10.45
2022-10-14T18:47:54.181Z,10.37
2022-10-14T18:50:22.492Z,10.32
2022-10-14T18:52:51.526Z,10.26
2022-10-14T18:55:20.523Z,10.20
2022-10-14T18:57:50.536Z,10.14
2022-10-14T19:00:22.100Z,10.09
2022-10-14T19:02:50.462Z,10.02
2022-10-14T19:05:19.245Z,9.95
2022-10-14T19:07:49.783Z,9.90
2022-10-14T19:10:18.474Z,9.85
2022-10-14T19:12:46.986Z,9.81
2022-10-14T19:15:15.455Z,9.75
2022-10-14T19:17:47.043Z,9.72
2022-10-14T19:20:16.472Z,9.71
2022-10-14T19:22:46.070Z,9.68
2022-10-14T19:25:17.728Z,9.66
2022-10-14T19:27:47.509Z,9.63
2022-10-14T19:30:16.026Z,9.61
2022-10-14T19:32:45.700Z,9.55
2022-10-14T19:35:14.528Z,9.48
2022-10-14T19:37:43.919Z,9.44
2022-10-14T19:40:14.615Z,9.41
2022-10-14T19:42:45.725Z,9.39
2022-10-14T19:45:16.096Z,9.38
2022-10-14T19:47:46.633Z,9.36
2022-10-14T19:50:14.806Z,9.34
2022-10-14T19:52:43.111Z,9.32
2022-10-14T19:55:13.428Z,9.29
2022-10-14T19:57:42.855Z,9.27
2022-10-14T20:00:11.586Z,9.24
2022-10-14T20:02:39.817Z,9.23
2022-10-14T20:05:20.968Z,9.20
2022-10-14T20:07:52.338Z,9.17
2022-10-14T20:10:21.628Z,9.13
2022-10-14T20:12:50.215Z,9.07
2022-10-14T20:15:20.538Z,9.04
2022-10-14T20:17:49.018Z,9.00
2022-10-14T20:20:18.752Z,8.98
2022-10-14T20:22:48.076Z,8.93
2022-10-14T20:25:16.750Z,8.90
2022-10-14T20:27:45.753Z,8.84
2022-10-14T20:30:15.862Z,8.79
2022-10-14T20:32:45.261Z,8.74
2022-10-14T20:35:20.899Z,8.69
2022-10-14T20:37:50.411Z,8.65
2022-10-14T20:40:19.734Z,8.60
2022-10-14T20:42:49.224Z,8.54
2022-10-14T20:45:20.391Z,8.50
2022-10-14T20:47:53.458Z,8.48
2022-10-14T20:50:24.885Z,8.45
2022-10-14T20:52:53.251Z,8.40
2022-10-14T20:55:21.661Z,8.38
2022-10-14T20:57:50.271Z,8.37
2022-10-14T21:00:19.283Z,8.37
2022-10-14T21:02:47.893Z,8.36
2022-10-14T21:05:16.199Z,8.38
2022-10-14T21:07:44.974Z,8.33
2022-10-14T21:10:13.183Z,8.31
2022-10-14T21:12:48.675Z,8.30
2022-10-14T21:15:20.179Z,8.28
2022-10-14T21:17:49.412Z,8.27
2022-10-14T21:20:17.742Z,8.25
2022-10-14T21:22:47.195Z,8.22
2022-10-14T21:25:15.686Z,8.21
2022-10-14T21:27:43.715Z,8.16
2022-10-14T21:30:12.708Z,8.14
2022-10-14T21:32:41.907Z,8.08
2022-10-14T21:35:10.268Z,8.05
2022-10-14T21:37:38.965Z,8.02
2022-10-14T21:40:07.768Z,7.97
2022-10-14T21:42:36.191Z,7.91
2022-10-14T21:45:04.877Z,7.89
2022-10-14T21:47:33.583Z,7.81
2022-10-14T21:50:01.797Z,7.79
2022-10-14T21:52:29.844Z,7.74
2022-10-14T21:54:59.301Z,7.72
2022-10-14T21:57:28.843Z,7.69
2022-10-14T21:59:57.615Z,7.66
2022-10-14T22:02:25.670Z,7.64
2022-10-14T22:04:53.637Z,7.64
2022-10-14T22:07:22.075Z,7.61
2022-10-14T22:09:50.347Z,7.62
2022-10-14T22:12:19.972Z,7.60
2022-10-14T22:14:48.589Z,7.58
2022-10-14T22:17:16.784Z,7.54
2022-10-14T22:19:45.008Z,7.51
2022-10-14T22:22:14.717Z,7.50
2022-10-14T22:24:43.453Z,7.49
2022-10-14T22:27:11.644Z,7.48
2022-10-14T22:29:41.275Z,7.46
2022-10-14T22:32:10.059Z,7.45
2022-10-14T22:34:38.197Z,7.43
2022-10-14T22:37:06.273Z,7.38
2022-10-14T22:39:35.499Z,7.37
2022-10-14T22:42:04.232Z,7.36
2022-10-14T22:44:32.424Z,7.35
2022-10-14T22:47:00.572Z,7.37
2022-10-14T22:49:30.016Z,7.36
2022-10-14T22:51:58.441Z,7.34
2022-10-14T22:54:27.069Z,7.29
2022-10-14T22:56:57.300Z,7.27
2022-10-14T22:59:25.376Z,7.25
2022-10-14T23:01:53.540Z,7.23
2022-10-14T23:04:21.611Z,7.20
2022-10-14T23:06:51.404Z,7.19
2022-10-14T23:09:19.563Z,7.17
2022-10-14T23:11:47.756Z,7.17
2022-10-14T23:14:16.413Z,7.15
2022-10-14T23:16:44.608Z,7.14
2022-10-14T23:19:15.096Z,7.14
2022-10-14T23:21:43.156Z,7.13
2022-10-14T23:24:12.294Z,7.12
2022-10-14T23:26:40.422Z,7.09
2022-10-14T23:29:11.513Z,7.06
2022-10-14T23:31:43.654Z,7.04
2022-10-14T23:34:13.585Z,7.00
2022-10-14T23:36:42.487Z,6.98
2022-10-14T23:39:11.378Z,6.96
2022-10-14T23:41:39.529Z,6.94
2022-10-14T23:44:07.561Z,6.92
2022-10-14T23:46:35.785Z,6.89
2022-10-14T23:49:14.330Z,6.90
2022-10-14T23:51:52.443Z,6.87
2022-10-14T23:54:20.873Z,6.84
2022-10-14T23:56:49.377Z,6.83
2022-10-14T23:59:19.816Z,6.80
